sensor_id;sensor_type;location;lat;lon;timestamp;temperature;humidity
36654;DHT22;22650;49.350;20.898;2023-03-26T00:01:38;4.10;99.90
36654;DHT22;22650;49.350;20.898;2023-03-26T00:04:11;4.20;99.90
36654;DHT22;22650;49.350;20.898;2023-03-26T00:06:45;4.20;99.90
36654;DHT22;22650;49.350;20.898;2023-03-26T00:09:20;4.20;99.90
36654;DHT22;22650;49.350;20.898;2023-03-26T00:11:53;4.30;99.90
36654;DHT22;22650;49.350;20.898;2023-03-26T00:14:27;4.30;99.90
36654;DHT22;22650;49.350;20.898;2023-03-26T00:17:02;4.40;99.90
36654;DHT22;22650;49.350;20.898;2023-03-26T00:19:36;4.50;99.90
36654;DHT22;22650;49.350;20.898;2023-03-26T00:22:11;4.60;99.90
36654;DHT22;22650;49.350;20.898;2023-03-26T00:24:45;4.70;99.90
36654;DHT22;22650;49.350;20.898;2023-03-26T00:27:20;4.80;99.90
36654;DHT22;22650;49.350;20.898;2023-03-26T00:29:54;4.80;99.90
36654;DHT22;22650;49.350;20.898;2023-03-26T00:32:29;5.00;99.90
36654;DHT22;22650;49.350;20.898;2023-03-26T00:35:04;5.00;99.90
36654;DHT22;22650;49.350;20.898;2023-03-26T00:37:38;5.00;99.90
36654;DHT22;22650;49.350;20.898;2023-03-26T00:40:14;5.10;99.90
36654;DHT22;22650;49.350;20.898;2023-03-26T00:42:47;5.10;99.90
36654;DHT22;22650;49.350;20.898;2023-03-26T00:45:21;5.10;99.90
36654;DHT22;22650;49.350;20.898;2023-03-26T00:47:56;5.10;99.90
36654;DHT22;22650;49.350;20.898;2023-03-26T00:50:29;5.10;99.90
36654;DHT22;22650;49.350;20.898;2023-03-26T00:53:03;5.10;99.90
36654;DHT22;22650;49.350;20.898;2023-03-26T00:55:37;5.00;99.90
36654;DHT22;22650;49.350;20.898;2023-03-26T00:58:12;5.10;99.90
36654;DHT22;22650;49.350;20.898;2023-03-26T01:00:50;5.20;99.90
36654;DHT22;22650;49.350;20.898;2023-03-26T01:03:26;5.20;99.90
36654;DHT22;22650;49.350;20.898;2023-03-26T01:06:03;5.20;99.90
36654;DHT22;22650;49.350;20.898;2023-03-26T01:08:41;5.20;99.90
36654;DHT22;22650;49.350;20.898;2023-03-26T01:11:18;5.20;99.90
36654;DHT22;22650;49.350;20.898;2023-03-26T01:13:55;5.20;99.90
36654;DHT22;22650;49.350;20.898;2023-03-26T01:16:34;5.10;99.90
36654;DHT22;22650;49.350;20.898;2023-03-26T01:19:13;5.10;99.90
36654;DHT22;22650;49.350;20.898;2023-03-26T01:21:48;5.00;99.90
36654;DHT22;22650;49.350;20.898;2023-03-26T01:24:22;5.10;99.90
36654;DHT22;22650;49.350;20.898;2023-03-26T01:27:06;5.00;99.90
36654;DHT22;22650;49.350;20.898;2023-03-26T01:29:44;5.00;99.90
36654;DHT22;22650;49.350;20.898;2023-03-26T01:32:28;5.00;99.90
36654;DHT22;22650;49.350;20.898;2023-03-26T01:35:16;4.90;99.90
36654;DHT22;22650;49.350;20.898;2023-03-26T01:38:04;4.90;99.90
36654;DHT22;22650;49.350;20.898;2023-03-26T01:40:46;4.90;99.90
36654;DHT22;22650;49.350;20.898;2023-03-26T01:43:27;4.80;99.90
36654;DHT22;22650;49.350;20.898;2023-03-26T01:46:05;4.80;99.90
36654;DHT22;22650;49.350;20.898;2023-03-26T01:48:41;4.80;99.90
36654;DHT22;22650;49.350;20.898;2023-03-26T01:51:25;4.80;99.90
36654;DHT22;22650;49.350;20.898;2023-03-26T01:54:01;4.70;99.90
36654;DHT22;22650;49.350;20.898;2023-03-26T01:56:40;4.70;99.90
36654;DHT22;22650;49.350;20.898;2023-03-26T01:59:29;4.60;99.90
36654;DHT22;22650;49.350;20.898;2023-03-26T02:02:10;4.50;99.90
36654;DHT22;22650;49.350;20.898;2023-03-26T02:04:50;4.50;99.90
36654;DHT22;22650;49.350;20.898;2023-03-26T02:07:27;4.50;99.90
36654;DHT22;22650;49.350;20.898;2023-03-26T02:10:10;4.40;99.90
36654;DHT22;22650;49.350;20.898;2023-03-26T02:12:46;4.40;99.90
36654;DHT22;22650;49.350;20.898;2023-03-26T02:15:20;4.30;99.90
36654;DHT22;22650;49.350;20.898;2023-03-26T02:17:53;4.40;99.90
36654;DHT22;22650;49.350;20.898;2023-03-26T02:20:27;4.40;99.90
36654;DHT22;22650;49.350;20.898;2023-03-26T02:23:01;4.40;99.90
36654;DHT22;22650;49.350;20.898;2023-03-26T02:25:35;4.40;99.90
36654;DHT22;22650;49.350;20.898;2023-03-26T02:28:12;4.40;99.90
36654;DHT22;22650;49.350;20.898;2023-03-26T02:30:45;4.40;99.90
36654;DHT22;22650;49.350;20.898;2023-03-26T02:33:19;4.40;99.90
36654;DHT22;22650;49.350;20.898;2023-03-26T02:35:53;4.40;99.90
36654;DHT22;22650;49.350;20.898;2023-03-26T02:38:31;4.50;99.90
36654;DHT22;22650;49.350;20.898;2023-03-26T02:41:07;4.50;99.90
36654;DHT22;22650;49.350;20.898;2023-03-26T02:43:56;4.50;99.90
36654;DHT22;22650;49.350;20.898;2023-03-26T02:46:49;4.50;99.90
36654;DHT22;22650;49.350;20.898;2023-03-26T02:49:43;4.50;99.90
36654;DHT22;22650;49.350;20.898;2023-03-26T02:52:23;4.50;99.90
36654;DHT22;22650;49.350;20.898;2023-03-26T02:54:58;4.50;99.90
36654;DHT22;22650;49.350;20.898;2023-03-26T02:57:32;4.50;99.90
36654;DHT22;22650;49.350;20.898;2023-03-26T03:00:25;4.50;99.90
36654;DHT22;22650;49.350;20.898;2023-03-26T03:03:26;4.50;99.90
36654;DHT22;22650;49.350;20.898;2023-03-26T03:06:21;4.50;99.90
36654;DHT22;22650;49.350;20.898;2023-03-26T03:09:01;4.50;99.90
36654;DHT22;22650;49.350;20.898;2023-03-26T03:11:40;4.50;99.90
36654;DHT22;22650;49.350;20.898;2023-03-26T03:14:13;4.40;99.90
36654;DHT22;22650;49.350;20.898;2023-03-26T03:16:48;4.40;99.90
36654;DHT22;22650;49.350;20.898;2023-03-26T03:19:22;4.40;99.90
36654;DHT22;22650;49.350;20.898;2023-03-26T03:21:55;4.30;99.90
36654;DHT22;22650;49.350;20.898;2023-03-26T03:24:29;4.30;99.90
36654;DHT22;22650;49.350;20.898;2023-03-26T03:27:05;4.30;99.90
36654;DHT22;22650;49.350;20.898;2023-03-26T03:29:42;4.20;99.90
36654;DHT22;22650;49.350;20.898;2023-03-26T03:32:40;4.20;99.90
36654;DHT22;22650;49.350;20.898;2023-03-26T03:35:14;4.20;99.90
36654;DHT22;22650;49.350;20.898;2023-03-26T03:37:53;4.20;99.90
36654;DHT22;22650;49.350;20.898;2023-03-26T03:40:27;4.20;99.90
36654;DHT22;22650;49.350;20.898;2023-03-26T03:43:00;4.20;99.90
36654;DHT22;22650;49.350;20.898;2023-03-26T03:45:43;4.30;99.90
36654;DHT22;22650;49.350;20.898;2023-03-26T03:48:38;4.30;99.90
36654;DHT22;22650;49.350;20.898;2023-03-26T03:51:13;4.30;99.90
36654;DHT22;22650;49.350;20.898;2023-03-26T03:53:59;4.30;99.90
36654;DHT22;22650;49.350;20.898;2023-03-26T03:56:49;4.30;99.90
36654;DHT22;22650;49.350;20.898;2023-03-26T03:59:41;4.30;99.90
36654;DHT22;22650;49.350;20.898;2023-03-26T04:02:20;4.30;99.90
36654;DHT22;22650;49.350;20.898;2023-03-26T04:05:04;4.30;99.90
36654;DHT22;22650;49.350;20.898;2023-03-26T04:07:40;4.30;99.90
36654;DHT22;22650;49.350;20.898;2023-03-26T04:10:44;4.30;99.90
36654;DHT22;22650;49.350;20.898;2023-03-26T04:13:20;4.30;99.90
36654;DHT22;22650;49.350;20.898;2023-03-26T04:16:13;4.30;99.90
36654;DHT22;22650;49.350;20.898;2023-03-26T04:18:47;4.20;99.90
36654;DHT22;22650;49.350;20.898;2023-03-26T04:21:23;4.10;99.90
36654;DHT22;22650;49.350;20.898;2023-03-26T04:23:57;4.10;99.90
36654;DHT22;22650;49.350;20.898;2023-03-26T04:27:10;4.00;99.90
36654;DHT22;22650;49.350;20.898;2023-03-26T04:29:47;4.00;99.90
36654;DHT22;22650;49.350;20.898;2023-03-26T04:32:28;4.00;99.90
36654;DHT22;22650;49.350;20.898;2023-03-26T04:35:06;4.00;99.90
36654;DHT22;22650;49.350;20.898;2023-03-26T04:37:43;4.00;99.90
36654;DHT22;22650;49.350;20.898;2023-03-26T04:40:37;4.00;99.90
36654;DHT22;22650;49.350;20.898;2023-03-26T04:43:18;4.00;99.90
36654;DHT22;22650;49.350;20.898;2023-03-26T04:46:06;4.00;99.90
36654;DHT22;22650;49.350;20.898;2023-03-26T04:48:51;3.90;99.90
36654;DHT22;22650;49.350;20.898;2023-03-26T04:51:28;4.00;99.90
36654;DHT22;22650;49.350;20.898;2023-03-26T04:54:09;4.00;99.90
36654;DHT22;22650;49.350;20.898;2023-03-26T04:57:00;4.00;99.90
36654;DHT22;22650;49.350;20.898;2023-03-26T04:59:41;4.00;99.90
36654;DHT22;22650;49.350;20.898;2023-03-26T05:02:17;4.00;99.90
36654;DHT22;22650;49.350;20.898;2023-03-26T05:04:57;4.10;99.90
36654;DHT22;22650;49.350;20.898;2023-03-26T05:07:34;4.00;99.90
36654;DHT22;22650;49.350;20.898;2023-03-26T05:10:13;4.00;99.90
36654;DHT22;22650;49.350;20.898;2023-03-26T05:12:53;4.10;99.90
36654;DHT22;22650;49.350;20.898;2023-03-26T05:15:30;4.10;99.90
36654;DHT22;22650;49.350;20.898;2023-03-26T05:18:33;4.10;99.90
36654;DHT22;22650;49.350;20.898;2023-03-26T05:21:07;4.10;99.90
36654;DHT22;22650;49.350;20.898;2023-03-26T05:23:43;4.10;99.90
36654;DHT22;22650;49.350;20.898;2023-03-26T05:26:26;4.10;99.90
36654;DHT22;22650;49.350;20.898;2023-03-26T05:29:01;4.20;99.90
36654;DHT22;22650;49.350;20.898;2023-03-26T05:31:40;4.20;99.90
36654;DHT22;22650;49.350;20.898;2023-03-26T05:34:14;4.20;99.90
36654;DHT22;22650;49.350;20.898;2023-03-26T05:36:47;4.20;99.90
36654;DHT22;22650;49.350;20.898;2023-03-26T05:39:43;4.20;99.90
36654;DHT22;22650;49.350;20.898;2023-03-26T05:42:53;4.20;99.90
36654;DHT22;22650;49.350;20.898;2023-03-26T05:45:50;4.10;99.90
36654;DHT22;22650;49.350;20.898;2023-03-26T05:48:30;4.20;99.90
36654;DHT22;22650;49.350;20.898;2023-03-26T05:51:04;4.20;99.90
36654;DHT22;22650;49.350;20.898;2023-03-26T05:53:39;4.20;99.90
36654;DHT22;22650;49.350;20.898;2023-03-26T05:56:31;4.20;99.90
36654;DHT22;22650;49.350;20.898;2023-03-26T05:59:38;4.20;99.90
36654;DHT22;22650;49.350;20.898;2023-03-26T06:02:31;4.20;99.90
36654;DHT22;22650;49.350;20.898;2023-03-26T06:05:25;4.20;99.90
36654;DHT22;22650;49.350;20.898;2023-03-26T06:08:21;4.20;99.90
36654;DHT22;22650;49.350;20.898;2023-03-26T06:10:59;4.20;99.90
36654;DHT22;22650;49.350;20.898;2023-03-26T06:13:40;4.30;99.90
36654;DHT22;22650;49.350;20.898;2023-03-26T06:16:16;4.40;99.90
36654;DHT22;22650;49.350;20.898;2023-03-26T06:19:19;4.60;99.90
36654;DHT22;22650;49.350;20.898;2023-03-26T06:21:52;4.70;99.90
36654;DHT22;22650;49.350;20.898;2023-03-26T06:24:30;4.80;99.90
36654;DHT22;22650;49.350;20.898;2023-03-26T06:27:26;5.00;99.90
36654;DHT22;22650;49.350;20.898;2023-03-26T06:30:18;5.20;99.90
36654;DHT22;22650;49.350;20.898;2023-03-26T06:33:20;5.40;99.90
36654;DHT22;22650;49.350;20.898;2023-03-26T06:35:56;5.60;99.90
36654;DHT22;22650;49.350;20.898;2023-03-26T06:38:30;5.70;99.90
36654;DHT22;22650;49.350;20.898;2023-03-26T06:41:06;5.90;99.90
36654;DHT22;22650;49.350;20.898;2023-03-26T06:43:58;6.10;99.90
36654;DHT22;22650;49.350;20.898;2023-03-26T06:47:07;6.20;99.90
36654;DHT22;22650;49.350;20.898;2023-03-26T06:50:11;6.40;99.90
36654;DHT22;22650;49.350;20.898;2023-03-26T06:53:04;6.60;99.90
36654;DHT22;22650;49.350;20.898;2023-03-26T06:56:01;6.70;99.90
36654;DHT22;22650;49.350;20.898;2023-03-26T06:58:52;6.90;99.90
36654;DHT22;22650;49.350;20.898;2023-03-26T07:01:45;7.10;99.90
36654;DHT22;22650;49.350;20.898;2023-03-26T07:04:37;7.30;99.90
36654;DHT22;22650;49.350;20.898;2023-03-26T07:07:30;7.50;99.90
36654;DHT22;22650;49.350;20.898;2023-03-26T07:10:22;7.70;99.90
36654;DHT22;22650;49.350;20.898;2023-03-26T07:13:08;7.90;99.90
36654;DHT22;22650;49.350;20.898;2023-03-26T07:16:01;8.10;99.90
36654;DHT22;22650;49.350;20.898;2023-03-26T07:18:35;8.20;99.90
36654;DHT22;22650;49.350;20.898;2023-03-26T07:21:12;8.30;99.90
36654;DHT22;22650;49.350;20.898;2023-03-26T07:23:48;8.50;99.90
36654;DHT22;22650;49.350;20.898;2023-03-26T07:26:51;8.70;99.90
36654;DHT22;22650;49.350;20.898;2023-03-26T07:29:42;9.00;99.90
36654;DHT22;22650;49.350;20.898;2023-03-26T07:32:43;9.30;99.90
36654;DHT22;22650;49.350;20.898;2023-03-26T07:35:44;9.60;99.90
36654;DHT22;22650;49.350;20.898;2023-03-26T07:38:42;10.00;99.90
36654;DHT22;22650;49.350;20.898;2023-03-26T07:41:45;10.30;99.90
36654;DHT22;22650;49.350;20.898;2023-03-26T07:44:46;10.60;99.90
36654;DHT22;22650;49.350;20.898;2023-03-26T07:47:36;10.90;99.90
36654;DHT22;22650;49.350;20.898;2023-03-26T07:50:35;11.10;99.90
36654;DHT22;22650;49.350;20.898;2023-03-26T07:53:29;11.30;99.90
36654;DHT22;22650;49.350;20.898;2023-03-26T07:56:16;11.50;99.90
36654;DHT22;22650;49.350;20.898;2023-03-26T07:59:25;11.70;99.90
36654;DHT22;22650;49.350;20.898;2023-03-26T08:02:38;11.80;99.90
36654;DHT22;22650;49.350;20.898;2023-03-26T08:05:47;11.80;98.60
36654;DHT22;22650;49.350;20.898;2023-03-26T08:08:37;11.70;98.30
36654;DHT22;22650;49.350;20.898;2023-03-26T08:11:39;11.90;99.90
36654;DHT22;22650;49.350;20.898;2023-03-26T08:14:29;11.90;96.90
36654;DHT22;22650;49.350;20.898;2023-03-26T08:17:08;11.90;96.80
36654;DHT22;22650;49.350;20.898;2023-03-26T08:19:52;12.00;97.50
36654;DHT22;22650;49.350;20.898;2023-03-26T08:22:33;11.90;95.50
36654;DHT22;22650;49.350;20.898;2023-03-26T08:25:22;11.80;94.50
36654;DHT22;22650;49.350;20.898;2023-03-26T08:28:19;11.90;97.10
36654;DHT22;22650;49.350;20.898;2023-03-26T08:30:56;11.90;92.40
36654;DHT22;22650;49.350;20.898;2023-03-26T08:33:30;11.80;95.20
36654;DHT22;22650;49.350;20.898;2023-03-26T08:36:08;11.80;95.20
36654;DHT22;22650;49.350;20.898;2023-03-26T08:38:41;11.90;97.40
36654;DHT22;22650;49.350;20.898;2023-03-26T08:41:54;11.90;96.40
36654;DHT22;22650;49.350;20.898;2023-03-26T08:55:00;12.20;92.60
36654;DHT22;22650;49.350;20.898;2023-03-26T08:58:02;12.30;92.20
36654;DHT22;22650;49.350;20.898;2023-03-26T09:01:08;12.40;93.20
36654;DHT22;22650;49.350;20.898;2023-03-26T09:04:13;12.40;91.40
36654;DHT22;22650;49.350;20.898;2023-03-26T09:07:06;12.40;91.50
36654;DHT22;22650;49.350;20.898;2023-03-26T09:10:28;12.50;92.40
36654;DHT22;22650;49.350;20.898;2023-03-26T09:13:20;12.50;91.50
36654;DHT22;22650;49.350;20.898;2023-03-26T09:23:11;12.80;92.40
36654;DHT22;22650;49.350;20.898;2023-03-26T09:35:32;13.00;90.50
36654;DHT22;22650;49.350;20.898;2023-03-26T09:38:24;13.00;86.60
36654;DHT22;22650;49.350;20.898;2023-03-26T09:41:07;13.00;87.10
36654;DHT22;22650;49.350;20.898;2023-03-26T09:46:53;13.00;82.50
36654;DHT22;22650;49.350;20.898;2023-03-26T09:49:40;13.00;82.50
36654;DHT22;22650;49.350;20.898;2023-03-26T09:52:31;13.00;80.50
36654;DHT22;22650;49.350;20.898;2023-03-26T09:55:41;13.10;81.00
36654;DHT22;22650;49.350;20.898;2023-03-26T09:58:38;13.30;80.60
36654;DHT22;22650;49.350;20.898;2023-03-26T10:01:16;13.40;81.90
36654;DHT22;22650;49.350;20.898;2023-03-26T10:04:13;13.40;82.60
36654;DHT22;22650;49.350;20.898;2023-03-26T10:06:58;13.40;83.50
36654;DHT22;22650;49.350;20.898;2023-03-26T10:09:39;13.50;82.70
36654;DHT22;22650;49.350;20.898;2023-03-26T10:12:27;13.50;81.40
36654;DHT22;22650;49.350;20.898;2023-03-26T10:15:15;13.40;80.70
36654;DHT22;22650;49.350;20.898;2023-03-26T10:18:03;13.50;80.40
36654;DHT22;22650;49.350;20.898;2023-03-26T10:21:04;13.70;83.00
36654;DHT22;22650;49.350;20.898;2023-03-26T10:23:55;14.20;81.60
36654;DHT22;22650;49.350;20.898;2023-03-26T10:26:43;14.80;81.30
36654;DHT22;22650;49.350;20.898;2023-03-26T10:32:52;15.50;77.50
36654;DHT22;22650;49.350;20.898;2023-03-26T10:35:40;15.50;72.80
36654;DHT22;22650;49.350;20.898;2023-03-26T10:38:25;15.80;73.40
36654;DHT22;22650;49.350;20.898;2023-03-26T10:41:05;16.10;75.70
36654;DHT22;22650;49.350;20.898;2023-03-26T10:44:08;16.40;70.50
36654;DHT22;22650;49.350;20.898;2023-03-26T10:47:10;16.60;70.20
36654;DHT22;22650;49.350;20.898;2023-03-26T10:52:59;16.90;66.40
36654;DHT22;22650;49.350;20.898;2023-03-26T10:55:37;17.00;68.20
36654;DHT22;22650;49.350;20.898;2023-03-26T10:58:16;17.30;67.50
36654;DHT22;22650;49.350;20.898;2023-03-26T11:00:56;17.40;66.20
36654;DHT22;22650;49.350;20.898;2023-03-26T11:03:45;17.50;66.50
36654;DHT22;22650;49.350;20.898;2023-03-26T11:06:29;17.70;64.00
36654;DHT22;22650;49.350;20.898;2023-03-26T11:09:13;17.90;65.70
36654;DHT22;22650;49.350;20.898;2023-03-26T11:11:55;18.10;61.60
36654;DHT22;22650;49.350;20.898;2023-03-26T11:14:35;18.10;65.70
36654;DHT22;22650;49.350;20.898;2023-03-26T11:17:17;18.20;62.00
36654;DHT22;22650;49.350;20.898;2023-03-26T11:20:16;17.90;60.40
36654;DHT22;22650;49.350;20.898;2023-03-26T11:23:02;17.70;62.90
36654;DHT22;22650;49.350;20.898;2023-03-26T11:25:48;17.60;63.80
36654;DHT22;22650;49.350;20.898;2023-03-26T11:28:32;17.40;61.90
36654;DHT22;22650;49.350;20.898;2023-03-26T11:31:16;17.30;62.00
36654;DHT22;22650;49.350;20.898;2023-03-26T11:33:56;16.90;62.10
36654;DHT22;22650;49.350;20.898;2023-03-26T11:36:35;16.60;62.80
36654;DHT22;22650;49.350;20.898;2023-03-26T11:39:12;16.40;62.10
36654;DHT22;22650;49.350;20.898;2023-03-26T11:41:48;16.30;64.70
36654;DHT22;22650;49.350;20.898;2023-03-26T11:44:35;16.00;64.80
36654;DHT22;22650;49.350;20.898;2023-03-26T11:47:11;15.90;64.40
36654;DHT22;22650;49.350;20.898;2023-03-26T11:49:47;15.70;64.10
36654;DHT22;22650;49.350;20.898;2023-03-26T11:52:24;15.40;63.30
36654;DHT22;22650;49.350;20.898;2023-03-26T11:54:58;15.10;64.50
36654;DHT22;22650;49.350;20.898;2023-03-26T11:57:34;15.00;65.40
36654;DHT22;22650;49.350;20.898;2023-03-26T12:00:12;14.80;64.30
36654;DHT22;22650;49.350;20.898;2023-03-26T12:02:49;14.70;63.10
36654;DHT22;22650;49.350;20.898;2023-03-26T12:05:30;14.90;65.60
36654;DHT22;22650;49.350;20.898;2023-03-26T12:08:17;15.20;65.90
36654;DHT22;22650;49.350;20.898;2023-03-26T12:11:04;15.30;62.80
36654;DHT22;22650;49.350;20.898;2023-03-26T12:13:42;15.40;64.70
36654;DHT22;22650;49.350;20.898;2023-03-26T12:16:18;15.30;63.10
36654;DHT22;22650;49.350;20.898;2023-03-26T12:19:02;15.30;62.70
36654;DHT22;22650;49.350;20.898;2023-03-26T12:21:43;15.20;65.10
36654;DHT22;22650;49.350;20.898;2023-03-26T12:24:27;15.10;63.80
36654;DHT22;22650;49.350;20.898;2023-03-26T12:27:19;15.10;62.30
36654;DHT22;22650;49.350;20.898;2023-03-26T12:29:58;15.00;62.20
36654;DHT22;22650;49.350;20.898;2023-03-26T12:32:32;15.00;63.80
36654;DHT22;22650;49.350;20.898;2023-03-26T12:35:25;15.00;63.40
36654;DHT22;22650;49.350;20.898;2023-03-26T12:38:22;14.90;64.40
36654;DHT22;22650;49.350;20.898;2023-03-26T12:41:08;15.00;65.80
36654;DHT22;22650;49.350;20.898;2023-03-26T12:44:21;15.00;65.00
36654;DHT22;22650;49.350;20.898;2023-03-26T12:47:18;14.90;62.70
36654;DHT22;22650;49.350;20.898;2023-03-26T12:50:14;14.90;64.30
36654;DHT22;22650;49.350;20.898;2023-03-26T12:53:10;15.10;64.30
36654;DHT22;22650;49.350;20.898;2023-03-26T12:55:54;15.30;65.60
36654;DHT22;22650;49.350;20.898;2023-03-26T12:58:52;15.60;64.80
36654;DHT22;22650;49.350;20.898;2023-03-26T13:01:39;15.70;66.10
36654;DHT22;22650;49.350;20.898;2023-03-26T13:04:35;15.70;61.40
36654;DHT22;22650;49.350;20.898;2023-03-26T13:07:19;15.80;59.50
36654;DHT22;22650;49.350;20.898;2023-03-26T13:13:32;15.70;60.70
36654;DHT22;22650;49.350;20.898;2023-03-26T13:16:15;15.80;60.20
36654;DHT22;22650;49.350;20.898;2023-03-26T13:18:55;16.00;61.70
36654;DHT22;22650;49.350;20.898;2023-03-26T13:21:40;16.30;60.80
36654;DHT22;22650;49.350;20.898;2023-03-26T13:24:24;16.60;59.40
36654;DHT22;22650;49.350;20.898;2023-03-26T13:27:08;16.80;61.40
36654;DHT22;22650;49.350;20.898;2023-03-26T13:29:51;16.80;58.90
36654;DHT22;22650;49.350;20.898;2023-03-26T13:32:38;16.80;59.50
36654;DHT22;22650;49.350;20.898;2023-03-26T13:35:21;16.90;58.70
36654;DHT22;22650;49.350;20.898;2023-03-26T13:38:04;16.70;59.20
36654;DHT22;22650;49.350;20.898;2023-03-26T13:40:51;16.70;60.10
36654;DHT22;22650;49.350;20.898;2023-03-26T13:43:45;16.50;57.80
36654;DHT22;22650;49.350;20.898;2023-03-26T13:46:30;16.40;59.00
36654;DHT22;22650;49.350;20.898;2023-03-26T13:49:10;16.40;58.90
36654;DHT22;22650;49.350;20.898;2023-03-26T13:51:49;16.30;59.30
36654;DHT22;22650;49.350;20.898;2023-03-26T13:54:29;16.20;59.90
36654;DHT22;22650;49.350;20.898;2023-03-26T13:57:10;16.20;60.20
36654;DHT22;22650;49.350;20.898;2023-03-26T13:59:50;16.10;59.60
36654;DHT22;22650;49.350;20.898;2023-03-26T14:02:32;15.90;59.70
36654;DHT22;22650;49.350;20.898;2023-03-26T14:05:13;15.80;59.60
36654;DHT22;22650;49.350;20.898;2023-03-26T14:07:50;15.70;60.80
36654;DHT22;22650;49.350;20.898;2023-03-26T14:10:28;15.70;60.50
36654;DHT22;22650;49.350;20.898;2023-03-26T14:13:12;15.80;62.00
36654;DHT22;22650;49.350;20.898;2023-03-26T14:15:50;15.80;58.90
36654;DHT22;22650;49.350;20.898;2023-03-26T14:18:31;15.80;59.20
36654;DHT22;22650;49.350;20.898;2023-03-26T14:21:35;15.80;59.90
36654;DHT22;22650;49.350;20.898;2023-03-26T14:24:57;15.80;59.20
36654;DHT22;22650;49.350;20.898;2023-03-26T14:27:44;15.60;57.30
36654;DHT22;22650;49.350;20.898;2023-03-26T14:30:44;15.40;59.00
36654;DHT22;22650;49.350;20.898;2023-03-26T14:33:36;15.20;57.90
36654;DHT22;22650;49.350;20.898;2023-03-26T14:36:21;15.10;61.00
36654;DHT22;22650;49.350;20.898;2023-03-26T14:39:30;15.20;60.10
36654;DHT22;22650;49.350;20.898;2023-03-26T14:42:11;15.00;58.50
36654;DHT22;22650;49.350;20.898;2023-03-26T14:48:25;14.80;61.20
36654;DHT22;22650;49.350;20.898;2023-03-26T14:51:11;14.70;59.50
36654;DHT22;22650;49.350;20.898;2023-03-26T14:53:52;14.60;60.70
36654;DHT22;22650;49.350;20.898;2023-03-26T14:59:50;14.50;60.00
36654;DHT22;22650;49.350;20.898;2023-03-26T15:09:31;14.20;60.90
36654;DHT22;22650;49.350;20.898;2023-03-26T15:12:26;14.10;61.40
36654;DHT22;22650;49.350;20.898;2023-03-26T15:18:53;13.90;61.70
36654;DHT22;22650;49.350;20.898;2023-03-26T15:24:54;13.80;62.90
36654;DHT22;22650;49.350;20.898;2023-03-26T15:34:09;13.80;63.00
36654;DHT22;22650;49.350;20.898;2023-03-26T15:37:14;13.80;63.60
36654;DHT22;22650;49.350;20.898;2023-03-26T15:40:06;13.80;65.60
36654;DHT22;22650;49.350;20.898;2023-03-26T15:42:52;13.70;64.70
36654;DHT22;22650;49.350;20.898;2023-03-26T15:45:35;13.60;63.90
36654;DHT22;22650;49.350;20.898;2023-03-26T15:48:33;13.60;65.70
36654;DHT22;22650;49.350;20.898;2023-03-26T15:51:24;13.50;67.10
36654;DHT22;22650;49.350;20.898;2023-03-26T15:54:07;13.50;67.30
36654;DHT22;22650;49.350;20.898;2023-03-26T15:56:57;13.50;67.20
36654;DHT22;22650;49.350;20.898;2023-03-26T15:59:41;13.50;68.90
36654;DHT22;22650;49.350;20.898;2023-03-26T16:02:26;13.40;69.70
36654;DHT22;22650;49.350;20.898;2023-03-26T16:05:26;13.40;68.90
36654;DHT22;22650;49.350;20.898;2023-03-26T16:08:09;13.30;68.30
36654;DHT22;22650;49.350;20.898;2023-03-26T16:10:50;13.20;69.00
36654;DHT22;22650;49.350;20.898;2023-03-26T16:13:33;13.10;71.30
36654;DHT22;22650;49.350;20.898;2023-03-26T16:16:50;13.00;72.90
36654;DHT22;22650;49.350;20.898;2023-03-26T16:19:48;13.00;75.10
36654;DHT22;22650;49.350;20.898;2023-03-26T16:22:41;12.90;75.80
36654;DHT22;22650;49.350;20.898;2023-03-26T16:25:25;12.80;74.80
36654;DHT22;22650;49.350;20.898;2023-03-26T16:28:20;12.70;75.30
36654;DHT22;22650;49.350;20.898;2023-03-26T16:31:30;12.40;76.00
36654;DHT22;22650;49.350;20.898;2023-03-26T16:34:24;12.20;76.50
36654;DHT22;22650;49.350;20.898;2023-03-26T16:36:59;12.00;77.10
36654;DHT22;22650;49.350;20.898;2023-03-26T16:39:40;11.80;77.30
36654;DHT22;22650;49.350;20.898;2023-03-26T16:42:33;11.80;79.60
36654;DHT22;22650;49.350;20.898;2023-03-26T16:45:22;11.70;82.40
36654;DHT22;22650;49.350;20.898;2023-03-26T16:48:08;11.60;82.60
36654;DHT22;22650;49.350;20.898;2023-03-26T16:50:50;11.30;83.80
36654;DHT22;22650;49.350;20.898;2023-03-26T16:53:36;11.10;85.90
36654;DHT22;22650;49.350;20.898;2023-03-26T16:56:15;11.00;88.80
36654;DHT22;22650;49.350;20.898;2023-03-26T16:58:55;10.80;90.20
36654;DHT22;22650;49.350;20.898;2023-03-26T17:01:39;10.60;90.90
36654;DHT22;22650;49.350;20.898;2023-03-26T17:04:18;10.40;94.30
36654;DHT22;22650;49.350;20.898;2023-03-26T17:07:07;10.20;95.30
36654;DHT22;22650;49.350;20.898;2023-03-26T17:09:58;10.00;97.80
36654;DHT22;22650;49.350;20.898;2023-03-26T17:12:38;9.80;99.90
36654;DHT22;22650;49.350;20.898;2023-03-26T17:15:22;9.60;99.90
36654;DHT22;22650;49.350;20.898;2023-03-26T17:18:15;9.40;99.90
36654;DHT22;22650;49.350;20.898;2023-03-26T17:20:58;9.30;99.90
36654;DHT22;22650;49.350;20.898;2023-03-26T17:26:42;9.00;99.90
36654;DHT22;22650;49.350;20.898;2023-03-26T17:29:24;8.90;99.90
36654;DHT22;22650;49.350;20.898;2023-03-26T17:32:01;8.70;99.90
36654;DHT22;22650;49.350;20.898;2023-03-26T17:34:57;8.60;99.90
36654;DHT22;22650;49.350;20.898;2023-03-26T17:37:40;8.50;99.90
36654;DHT22;22650;49.350;20.898;2023-03-26T17:40:28;8.30;99.90
36654;DHT22;22650;49.350;20.898;2023-03-26T17:43:07;8.10;99.90
36654;DHT22;22650;49.350;20.898;2023-03-26T17:45:42;8.00;99.90
36654;DHT22;22650;49.350;20.898;2023-03-26T17:48:36;7.80;99.90
36654;DHT22;22650;49.350;20.898;2023-03-26T17:51:22;7.70;99.90
36654;DHT22;22650;49.350;20.898;2023-03-26T17:54:01;7.60;99.90
36654;DHT22;22650;49.350;20.898;2023-03-26T17:56:39;7.50;99.90
36654;DHT22;22650;49.350;20.898;2023-03-26T17:59:17;7.40;99.90
36654;DHT22;22650;49.350;20.898;2023-03-26T18:01:57;7.40;99.90
36654;DHT22;22650;49.350;20.898;2023-03-26T18:04:34;7.30;99.90
36654;DHT22;22650;49.350;20.898;2023-03-26T18:07:28;7.20;99.90
36654;DHT22;22650;49.350;20.898;2023-03-26T18:10:19;7.10;99.90
36654;DHT22;22650;49.350;20.898;2023-03-26T18:16:11;6.80;99.90
36654;DHT22;22650;49.350;20.898;2023-03-26T18:18:48;6.70;99.90
36654;DHT22;22650;49.350;20.898;2023-03-26T18:21:27;6.60;99.90
36654;DHT22;22650;49.350;20.898;2023-03-26T18:24:04;6.60;99.90
36654;DHT22;22650;49.350;20.898;2023-03-26T18:26:42;6.50;99.90